This is the latest recevied weather packets stored in our database for station/object KE5WTH-14. If no packets are shown the sender has not sent any weather packets the latest 1 day(s).
| Time | Temp. | Humidity | Pressure | Rain* | Wind** | Luminosity | Snow |
|---|---|---|---|---|---|---|---|
| 1778104234 | 16.67° C | 74% | 1013.6 hPa | 0 mm | - | 315 W/m² | - |
| 1778103934 | 16.67° C | 75% | 1013.9 hPa | 0 mm | - | 255 W/m² | - |
| 1778103873 | 16.67° C | 75% | 1013.9 hPa | 0 mm | - | 274 W/m² | - |
| 1778103815 | 16.67° C | 75% | 1013.8 hPa | 0 mm | - | 246 W/m² | - |
| 1778103752 | 16.67° C | 74% | 1013.8 hPa | 0 mm | - | 236 W/m² | - |
| 1778103694 | 16.67° C | 75% | 1013.7 hPa | 0 mm | - | 236 W/m² | - |
| 1778103634 | 16.67° C | 74% | 1013.8 hPa | 0 mm | - | 225 W/m² | - |
| 1778103453 | 16.67° C | 75% | 1013.8 hPa | 0 mm | - | 255 W/m² | - |
| 1778103393 | 16.67° C | 75% | 1013.6 hPa | 0 mm | - | 311 W/m² | - |
| 1778102964 | 16.11° C | 75% | 1014.1 hPa | 0 mm | - | 171 W/m² | - |
| 1778102704 | 16.11° C | 75% | 1014.2 hPa | 0 mm | - | 211 W/m² | - |
| 1778102339 | 16.67° C | 74% | 1014.1 hPa | 0 mm | - | 208 W/m² | - |
| 1778102153 | 16.67° C | 74% | 1014 hPa | 0 mm | - | 239 W/m² | - |
| 1778102031 | 16.67° C | 75% | 1013.8 hPa | 0 mm | - | 283 W/m² | - |
| 1778101970 | 16.67° C | 75% | 1013.9 hPa | 0 mm | - | 301 W/m² | - |
| 1778101908 | 16.67° C | 75% | 1013.8 hPa | 0 mm | - | 332 W/m² | - |
| 1778101848 | 16.67° C | 75% | 1013.8 hPa | 0 mm | - | 332 W/m² | - |
| 1778101785 | 16.67° C | 75% | 1013.8 hPa | 0 mm | - | 331 W/m² | - |
| 1778101724 | 16.67° C | 74% | 1013.8 hPa | 0 mm | - | 339 W/m² | - |
| 1778101540 | 16.67° C | 74% | 1013.7 hPa | 0 mm | - | 308 W/m² | - |
| 1778101232 | 16.11° C | 74% | 1013.9 hPa | 0 mm | - | 309 W/m² | - |
| 1778101172 | 16.67° C | 73% | 1013.9 hPa | 0 mm | - | 309 W/m² | - |
| 1778100991 | 16.67° C | 73% | 1014 hPa | 0 mm | - | 281 W/m² | - |
| 1778100932 | 16.67° C | 73% | 1014.1 hPa | 0 mm | - | 271 W/m² | - |
| 1778100870 | 16.67° C | 73% | 1014.1 hPa | 0 mm | - | 288 W/m² | - |
* Rain latest hour (hover to see other rain measurements)
** Current wind speed in m/s (hover to see current wind gust speed)